MOL Modern — V7VS6 — position and weather

sailwx.info

Track history (hours):
 
Tides and Currents Weather Stations Pressure Air Temp Water Temp Dewpoint Dewpoint Depression Visibility Wind Speed Wind Dir Waves Ship Positions

MOL Modern

Last reported at 2018-Apr-21 06:00 UTC. Time now 2018-Apr-21 06:10 UTC.
Position N 09°22' W 079°53'.

Length 302 m; draft 11.2 m.

Type: Ship (hazmat cat A). MMSI: 538004203.

Date/timePositionNaut miles runAvg speedWind from/ knotsBaromVisibWave heightAir tempDewpointWater temp
2018-Apr-21 06:00N 09°22' W 079°53'0 0.0
2018-Apr-21 05:30N 09°22' W 079°53'0 0.0
2018-Apr-21 05:00N 09°22' W 079°53'0 0.0
2018-Apr-21 04:30N 09°22' W 079°53'0 0.0
2018-Apr-21 03:57N 09°22' W 079°53'0 0.0
2018-Apr-21 03:30N 09°22' W 079°53'0 0.0
2018-Apr-21 03:00N 09°22' W 079°53'0 0.0
2018-Apr-21 02:30N 09°22' W 079°53'0 0.0
2018-Apr-21 02:00N 09°22' W 079°53'0 0.0
2018-Apr-21 01:30N 09°22' W 079°53'0 0.0
2018-Apr-21 01:00N 09°22' W 079°53'0 0.0
2018-Apr-21 00:30N 09°22' W 079°53'0 0.0
2018-Apr-21 00:00N 09°22' W 079°53'0 0.0
2018-Apr-20 23:30N 09°22' W 079°53'0 0.0
2018-Apr-20 22:59N 09°22' W 079°53'0 0.0
2018-Apr-20 22:30N 09°22' W 079°53'0 0.7
2018-Apr-20 22:00N 09°22' W 079°54'3 5.4
2018-Apr-20 21:30N 09°25' W 079°54'3 6.5
2018-Apr-20 21:00N 09°28' W 079°53'714.8
2018-Apr-20 20:30N 09°35' W 079°52'  
2018-Apr-15 05:20N 36°52' W 075°53'3 9.6
2018-Apr-15 05:01N 36°54' W 075°56'5 9.3
2018-Apr-15 04:30N 36°57' W 076°00'714.1
2018-Apr-15 04:00N 36°59' W 076°09'714.7
2018-Apr-15 03:30N 36°60' W 076°18'4 8.6
2018-Apr-15 03:00N 36°56' W 076°20'0 0.1
2018-Apr-15 01:15N 36°56' W 076°20'0 0.0
2018-Apr-14 23:33N 36°56' W 076°20'0 0.0
2018-Apr-14 23:27N 36°56' W 076°20'0 0.0
2018-Apr-14 22:57N 36°56' W 076°20'0 0.0
2018-Apr-14 22:09N 36°56' W 076°20'0 0.0
2018-Apr-14 19:12N 36°56' W 076°20'0 0.1
2018-Apr-14 19:00N 36°56' W 076°20'0 0.0
2018-Apr-14 14:06N 36°56' W 076°20'0 0.0
2018-Apr-14 13:42N 36°56' W 076°20'0 0.0
2018-Apr-14 11:51N 36°56' W 076°20'0 0.0
2018-Apr-14 11:24N 36°56' W 076°20'0 0.0
2018-Apr-14 11:00N 36°56' W 076°20'0 0.0
2018-Apr-14 10:30N 36°56' W 076°20'0 0.1
2018-Apr-14 10:01N 36°56' W 076°20'2 4.1
2018-Apr-14 09:30N 36°58' W 076°20'510.3
2018-Apr-14 08:58N 37°00' W 076°14'715.1
2018-Apr-14 08:30N 36°58' W 076°06'612.1
2018-Apr-14 08:00N 36°57' W 075°59'4 8.0
2018-Apr-14 07:30N 36°55' W 075°54'4 7.9
2018-Apr-14 07:00N 36°52' W 075°51'5 8.2
2018-Apr-14 06:27N 36°50' W 075°46'  
2018-Apr-11 18:51N 32°40' W 079°40'3 9.3
2018-Apr-11 18:30N 32°38' W 079°37'4 7.7
2018-Apr-11 18:00N 32°34' W 079°35'5 8.5
2018-Apr-11 17:23N 32°29' W 079°35'3 8.3
2018-Apr-11 17:00N 32°26' W 079°37'4 8.3
2018-Apr-11 16:30N 32°23' W 079°39'4 8.3
2018-Apr-11 16:00N 32°19' W 079°41'4 8.4
2018-Apr-11 15:30N 32°15' W 079°44'4 8.2
2018-Apr-11 14:59N 32°11' W 079°46'3 6.3
2018-Apr-11 14:30N 32°09' W 079°48'5 8.9
2018-Apr-11 13:55N 32°04' W 079°51'4 8.9
2018-Apr-11 13:28N 32°01' W 079°53'4 8.9
2018-Apr-11 13:00N 31°57' W 079°55'4 8.8
2018-Apr-11 12:30N 31°53' W 079°58'5 8.8
2018-Apr-11 11:59N 31°49' W 080°00'5 8.8
2018-Apr-11 11:26N 31°45' W 080°03'  
Track history (hours):
 
Tides and Currents Weather Stations Pressure Air Temp Water Temp Dewpoint Dewpoint Depression Visibility Wind Speed Wind Dir Waves Ship Positions

MOL Modern

Last reported at 2018-Apr-21 06:00 UTC. Time now 2018-Apr-21 06:10 UTC.
Position N 09°22' W 079°53'.

Length 302 m; draft 11.2 m.

Type: Ship (hazmat cat A). MMSI: 538004203.

Date/timePositionNaut miles runAvg speedWind from/ knotsBaromVisibWave heightAir tempDewpointWater temp
2018-Apr-21 06:00N 09°22' W 079°53'0 0.0
2018-Apr-21 05:30N 09°22' W 079°53'0 0.0
2018-Apr-21 05:00N 09°22' W 079°53'0 0.0
2018-Apr-21 04:30N 09°22' W 079°53'0 0.0
2018-Apr-21 03:57N 09°22' W 079°53'0 0.0
2018-Apr-21 03:30N 09°22' W 079°53'0 0.0
2018-Apr-21 03:00N 09°22' W 079°53'0 0.0
2018-Apr-21 02:30N 09°22' W 079°53'0 0.0
2018-Apr-21 02:00N 09°22' W 079°53'0 0.0
2018-Apr-21 01:30N 09°22' W 079°53'0 0.0
2018-Apr-21 01:00N 09°22' W 079°53'0 0.0
2018-Apr-21 00:30N 09°22' W 079°53'0 0.0
2018-Apr-21 00:00N 09°22' W 079°53'0 0.0
2018-Apr-20 23:30N 09°22' W 079°53'0 0.0
2018-Apr-20 22:59N 09°22' W 079°53'0 0.0
2018-Apr-20 22:30N 09°22' W 079°53'0 0.7
2018-Apr-20 22:00N 09°22' W 079°54'3 5.4
2018-Apr-20 21:30N 09°25' W 079°54'3 6.5
2018-Apr-20 21:00N 09°28' W 079°53'714.8
2018-Apr-20 20:30N 09°35' W 079°52'  
2018-Apr-15 05:20N 36°52' W 075°53'3 9.6
2018-Apr-15 05:01N 36°54' W 075°56'5 9.3
2018-Apr-15 04:30N 36°57' W 076°00'714.1
2018-Apr-15 04:00N 36°59' W 076°09'714.7
2018-Apr-15 03:30N 36°60' W 076°18'4 8.6
2018-Apr-15 03:00N 36°56' W 076°20'0 0.1
2018-Apr-15 01:15N 36°56' W 076°20'0 0.0
2018-Apr-14 23:33N 36°56' W 076°20'0 0.0
2018-Apr-14 23:27N 36°56' W 076°20'0 0.0
2018-Apr-14 22:57N 36°56' W 076°20'0 0.0
2018-Apr-14 22:09N 36°56' W 076°20'0 0.0
2018-Apr-14 19:12N 36°56' W 076°20'0 0.1
2018-Apr-14 19:00N 36°56' W 076°20'0 0.0
2018-Apr-14 14:06N 36°56' W 076°20'0 0.0
2018-Apr-14 13:42N 36°56' W 076°20'0 0.0
2018-Apr-14 11:51N 36°56' W 076°20'0 0.0
2018-Apr-14 11:24N 36°56' W 076°20'0 0.0
2018-Apr-14 11:00N 36°56' W 076°20'0 0.0
2018-Apr-14 10:30N 36°56' W 076°20'0 0.1
2018-Apr-14 10:01N 36°56' W 076°20'2 4.1
2018-Apr-14 09:30N 36°58' W 076°20'510.3
2018-Apr-14 08:58N 37°00' W 076°14'715.1
2018-Apr-14 08:30N 36°58' W 076°06'612.1
2018-Apr-14 08:00N 36°57' W 075°59'4 8.0
2018-Apr-14 07:30N 36°55' W 075°54'4 7.9
2018-Apr-14 07:00N 36°52' W 075°51'5 8.2
2018-Apr-14 06:27N 36°50' W 075°46'  
2018-Apr-11 18:51N 32°40' W 079°40'3 9.3
2018-Apr-11 18:30N 32°38' W 079°37'4 7.7
2018-Apr-11 18:00N 32°34' W 079°35'5 8.5
2018-Apr-11 17:23N 32°29' W 079°35'3 8.3
2018-Apr-11 17:00N 32°26' W 079°37'4 8.3
2018-Apr-11 16:30N 32°23' W 079°39'4 8.3
2018-Apr-11 16:00N 32°19' W 079°41'4 8.4
2018-Apr-11 15:30N 32°15' W 079°44'4 8.2
2018-Apr-11 14:59N 32°11' W 079°46'3 6.3
2018-Apr-11 14:30N 32°09' W 079°48'5 8.9
2018-Apr-11 13:55N 32°04' W 079°51'4 8.9
2018-Apr-11 13:28N 32°01' W 079°53'4 8.9
2018-Apr-11 13:00N 31°57' W 079°55'4 8.8
2018-Apr-11 12:30N 31°53' W 079°58'5 8.8
2018-Apr-11 11:59N 31°49' W 080°00'5 8.8
2018-Apr-11 11:26N 31°45' W 080°03'  

Dump ship's entire track history